Time;durP1;ratioP1;P1;durP2;ratioP2;P2;SDS_P1;SDS_P2;PMS_P1;PMS_P2;Temp;Humidity;BMP_temperature;BMP_pressure;BME280_temperature;BME280_humidity;BME280_pressure;Samples;Min_cycle;Max_cycle;Signal;HPM_P1;HPM_P2
2023/03/21 00:00:42;;;;;;;17.83;8.37;;;9.80;1.00;;;;;;5043562;28;20222;-67
2023/03/21 00:03:10;;;;;;;13.17;7.83;;;9.80;1.00;;;;;;5041744;28;20223;-67
2023/03/21 00:05:50;;;;;;;13.30;7.73;;;9.80;1.00;;;;;;5030658;28;20275;-67
2023/03/21 00:08:18;;;;;;;16.00;8.30;;;9.80;1.00;;;;;;5029562;28;20700;-67
2023/03/21 00:10:45;;;;;;;20.30;8.33;;;9.80;1.00;;;;;;5041947;28;20200;-67
2023/03/21 00:13:14;;;;;;;17.00;9.63;;;9.80;1.00;;;;;;5041512;28;20203;-67
2023/03/21 00:15:53;;;;;;;18.10;8.87;;;9.80;1.00;;;;;;5041719;28;20202;-68
2023/03/21 00:18:40;;;;;;;20.50;9.90;;;9.80;1.00;;;;;;5040837;28;20214;-68
2023/03/21 00:21:11;;;;;;;18.60;9.03;;;9.80;1.00;;;;;;5023790;28;20188;-71
2023/03/21 00:23:59;;;;;;;19.90;10.57;;;9.80;1.00;;;;;;5039984;28;20199;-68
2023/03/21 00:26:26;;;;;;;25.10;9.93;;;9.90;1.00;;;;;;5023645;28;20728;-68
2023/03/21 00:28:53;;;;;;;20.40;10.53;;;9.90;1.00;;;;;;5040247;28;20255;-68
2023/03/21 00:31:20;;;;;;;16.80;9.57;;;9.80;1.00;;;;;;5023206;28;20250;-67
2023/03/21 00:33:48;;;;;;;18.03;10.50;;;9.90;1.00;;;;;;5004293;28;20627;-68
2023/03/21 00:36:16;;;;;;;20.43;9.67;;;9.90;1.00;;;;;;5022542;28;20242;-68
2023/03/21 00:38:43;;;;;;;15.17;8.07;;;9.90;1.00;;;;;;5021231;28;20223;-72
2023/03/21 00:41:13;;;;;;;20.87;8.87;;;9.90;1.00;;;;;;5027682;28;20204;-71
2023/03/21 00:44:00;;;;;;;16.30;7.73;;;9.90;1.00;;;;;;5013315;28;20201;-68
2023/03/21 00:46:27;;;;;;;19.53;8.13;;;9.90;1.00;;;;;;5015814;28;20230;-68
2023/03/21 00:49:08;;;;;;;19.63;9.13;;;9.90;1.00;;;;;;5021572;28;20223;-70
2023/03/21 00:51:35;;;;;;;20.07;7.93;;;9.90;1.00;;;;;;5038526;28;20729;-69
2023/03/21 00:54:04;;;;;;;13.57;8.17;;;10.00;1.00;;;;;;5037906;28;20924;-69
2023/03/21 00:56:31;;;;;;;16.07;8.20;;;10.00;1.00;;;;;;5040961;28;20947;-68
2023/03/21 00:58:58;;;;;;;17.37;8.30;;;9.90;1.00;;;;;;5013647;28;20230;-68
2023/03/21 01:01:30;;;;;;;19.60;9.00;;;9.90;1.00;;;;;;5034334;28;20230;-67
2023/03/21 01:04:03;;;;;;;18.37;8.47;;;9.90;1.00;;;;;;5038745;28;20297;-68
2023/03/21 01:06:31;;;;;;;25.10;9.00;;;10.00;1.00;;;;;;5019538;28;20238;-67
2023/03/21 01:08:58;;;;;;;14.83;8.40;;;10.00;1.00;;;;;;5036043;28;20227;-67
2023/03/21 01:11:27;;;;;;;20.53;9.27;;;10.00;1.00;;;;;;5012106;28;20208;-68
2023/03/21 01:13:55;;;;;;;14.10;7.83;;;10.00;1.00;;;;;;5027128;28;20210;-68
2023/03/21 01:16:41;;;;;;;18.37;8.97;;;9.90;1.00;;;;;;5040163;28;20659;-68
2023/03/21 01:19:12;;;;;;;23.17;8.60;;;10.00;1.00;;;;;;5039989;28;20212;-69
2023/03/21 01:21:51;;;;;;;15.30;8.83;;;10.00;1.00;;;;;;5039280;28;20224;-68
2023/03/21 01:24:18;;;;;;;16.47;9.13;;;10.00;1.00;;;;;;5038220;28;20204;-69
2023/03/21 01:26:45;;;;;;;17.60;8.40;;;9.90;1.00;;;;;;5020784;28;20199;-68
2023/03/21 01:29:12;;;;;;;18.33;8.23;;;9.90;1.00;;;;;;5029783;28;20200;-68
2023/03/21 01:31:39;;;;;;;14.77;9.07;;;10.00;1.00;;;;;;5038468;28;20271;-68
2023/03/21 01:34:06;;;;;;;15.60;8.70;;;10.00;1.00;;;;;;5020277;28;20211;-68
2023/03/21 01:36:33;;;;;;;17.53;8.53;;;9.90;1.00;;;;;;5018410;28;20231;-68
2023/03/21 01:39:05;;;;;;;15.00;8.63;;;9.90;1.00;;;;;;5010655;28;20281;-68
2023/03/21 01:41:36;;;;;;;18.07;8.63;;;9.90;1.00;;;;;;5020020;28;20417;-68
2023/03/21 01:44:17;;;;;;;20.87;8.77;;;9.90;1.00;;;;;;5025509;28;20579;-69
2023/03/21 01:46:51;;;;;;;25.90;8.37;;;9.90;1.00;;;;;;5009977;28;20184;-68
2023/03/21 01:49:48;;;;;;;14.83;8.17;;;9.90;1.00;;;;;;5037415;28;20203;-68
2023/03/21 01:52:37;;;;;;;18.07;7.77;;;9.90;1.00;;;;;;5020076;28;20648;-68
2023/03/21 01:55:25;;;;;;;18.10;9.87;;;9.90;1.00;;;;;;5038211;28;20317;-68
2023/03/21 01:57:58;;;;;;;17.93;8.83;;;9.90;1.00;;;;;;5019950;28;20286;-68
2023/03/21 02:01:09;;;;;;;16.07;7.97;;;9.90;1.00;;;;;;4973997;28;20206;-66
2023/03/21 02:03:49;;;;;;;19.53;8.20;;;9.90;1.00;;;;;;5010161;28;20748;-66
2023/03/21 02:06:51;;;;;;;18.90;8.30;;;9.90;1.00;;;;;;5015241;28;20211;-65
2023/03/21 02:09:32;;;;;;;19.77;8.67;;;9.90;1.00;;;;;;5036129;28;20200;-65
2023/03/21 02:12:00;;;;;;;15.27;7.93;;;9.90;1.00;;;;;;5019135;28;20325;-65
2023/03/21 02:14:32;;;;;;;23.07;9.07;;;9.80;1.00;;;;;;5011224;28;20204;-66
2023/03/21 02:17:36;;;;;;;19.73;8.47;;;9.90;1.00;;;;;;5017967;28;20610;-65
2023/03/21 02:20:42;;;;;;;19.83;8.53;;;9.90;1.00;;;;;;5019225;28;20208;-65
2023/03/21 02:23:33;;;;;;;15.83;8.10;;;9.90;1.00;;;;;;5034891;28;20316;-65
2023/03/21 02:26:28;;;;;;;17.10;8.67;;;9.90;1.00;;;;;;5037368;28;20275;-67
2023/03/21 02:29:40;;;;;;;19.27;8.03;;;9.90;1.00;;;;;;5037150;28;20196;-65
2023/03/21 02:32:09;;;;;;;18.30;7.83;;;9.90;1.00;;;;;;5019457;28;20215;-65
2023/03/21 02:35:17;;;;;;;19.37;8.13;;;9.90;1.00;;;;;;5034077;28;20204;-65
2023/03/21 02:38:02;;;;;;;15.47;7.93;;;9.90;1.00;;;;;;5002348;28;20204;-65
2023/03/21 02:40:49;;;;;;;19.77;8.43;;;9.90;1.00;;;;;;5009448;28;20199;-65
2023/03/21 02:43:39;;;;;;;15.33;7.87;;;9.90;1.00;;;;;;5017614;28;20674;-64
2023/03/21 02:46:17;;;;;;;14.50;8.00;;;9.90;1.00;;;;;;5011902;28;20247;-64
2023/03/21 02:48:53;;;;;;;22.17;8.53;;;9.90;1.00;;;;;;5038377;28;20199;-65
2023/03/21 02:51:22;;;;;;;17.73;8.43;;;9.90;1.00;;;;;;5018337;28;20205;-68
2023/03/21 02:53:56;;;;;;;18.83;8.93;;;9.90;1.00;;;;;;5028454;28;20199;-65
2023/03/21 02:56:45;;;;;;;18.27;8.20;;;9.90;1.00;;;;;;5035934;28;20209;-67
2023/03/21 02:59:15;;;;;;;11.43;7.30;;;9.90;1.00;;;;;;5019934;28;20639;-66
2023/03/21 03:01:43;;;;;;;20.73;8.27;;;9.90;1.00;;;;;;5039456;28;20234;-66
2023/03/21 03:04:27;;;;;;;18.30;8.57;;;10.00;1.00;;;;;;5029499;28;20723;-67
2023/03/21 03:06:57;;;;;;;15.90;7.87;;;10.00;1.00;;;;;;5036539;28;20945;-65
2023/03/21 03:09:57;;;;;;;17.83;8.80;;;10.00;1.00;;;;;;5037547;28;20221;-66
2023/03/21 03:12:41;;;;;;;17.87;8.47;;;10.10;1.00;;;;;;5009666;28;20215;-66
2023/03/21 03:15:28;;;;;;;19.17;8.60;;;10.10;1.00;;;;;;5035230;28;20651;-65
2023/03/21 03:18:14;;;;;;;19.10;8.90;;;10.10;1.00;;;;;;5037245;28;20238;-66
2023/03/21 03:20:43;;;;;;;19.60;8.57;;;10.20;1.00;;;;;;5049729;28;20191;-65
2023/03/21 03:23:28;;;;;;;16.60;9.10;;;10.10;1.00;;;;;;5036466;28;20203;-65
2023/03/21 03:26:00;;;;;;;19.30;8.90;;;10.10;1.00;;;;;;5021181;28;20566;-65
2023/03/21 03:28:34;;;;;;;20.10;9.10;;;10.10;1.00;;;;;;5023506;28;20247;-65
2023/03/21 03:31:04;;;;;;;18.47;9.57;;;10.10;1.00;;;;;;5023790;28;20683;-65
2023/03/21 03:33:51;;;;;;;15.70;8.27;;;10.20;1.00;;;;;;5025039;28;20286;-64
2023/03/21 03:36:20;;;;;;;19.47;8.93;;;10.10;1.00;;;;;;5023718;28;20207;-65
2023/03/21 03:39:05;;;;;;;14.50;8.43;;;10.10;1.00;;;;;;5016233;28;20220;-65
2023/03/21 03:41:44;;;;;;;24.67;10.03;;;10.00;1.00;;;;;;5014043;28;20659;-66
2023/03/21 03:44:35;;;;;;;19.37;9.03;;;10.00;1.00;;;;;;5023450;28;20183;-66
2023/03/21 03:47:12;;;;;;;17.50;9.50;;;10.00;1.00;;;;;;5039685;28;20179;-67
2023/03/21 03:50:04;;;;;;;41.20;22.77;;;10.00;1.00;;;;;;5037808;28;20195;-67
2023/03/21 03:52:46;;;;;;;21.70;11.60;;;10.10;1.00;;;;;;5022566;28;20215;-66
2023/03/21 03:55:26;;;;;;;21.70;9.87;;;10.10;1.00;;;;;;5024754;28;20207;-66
2023/03/21 03:57:57;;;;;;;14.43;9.03;;;10.00;1.00;;;;;;5014037;28;20192;-66
2023/03/21 04:00:26;;;;;;;22.30;10.57;;;10.10;1.00;;;;;;5026486;28;20228;-66
2023/03/21 04:02:53;;;;;;;25.17;10.00;;;10.10;1.00;;;;;;5039371;28;20188;-66
2023/03/21 04:05:23;;;;;;;16.40;9.97;;;10.10;1.00;;;;;;5028437;28;20307;-71
2023/03/21 04:07:50;;;;;;;24.63;11.43;;;10.10;1.00;;;;;;5022870;28;20211;-66
2023/03/21 04:10:24;;;;;;;19.37;10.10;;;10.10;1.00;;;;;;5022542;28;20749;-65
2023/03/21 04:12:51;;;;;;;23.10;10.80;;;10.00;1.00;;;;;;5030364;28;20207;-65
2023/03/21 04:15:32;;;;;;;17.10;10.37;;;10.10;1.00;;;;;;5024500;28;20200;-67
2023/03/21 04:18:06;;;;;;;18.20;9.90;;;10.10;1.00;;;;;;5021751;28;20272;-67
2023/03/21 04:20:34;;;;;;;19.40;9.87;;;10.10;1.00;;;;;;5021233;28;20230;-66
2023/03/21 04:23:10;;;;;;;17.90;9.70;;;10.10;1.00;;;;;;5023485;28;20291;-66
2023/03/21 04:25:38;;;;;;;17.73;9.77;;;10.10;1.00;;;;;;5019063;28;20323;-68
2023/03/21 04:28:16;;;;;;;15.17;9.07;;;10.10;1.00;;;;;;5014751;28;20196;-65
2023/03/21 04:31:05;;;;;;;20.57;9.60;;;10.00;1.00;;;;;;5025523;28;20197;-64
2023/03/21 04:33:51;;;;;;;15.63;9.30;;;10.00;1.00;;;;;;5020286;28;21133;-67
2023/03/21 04:36:29;;;;;;;23.30;10.10;;;9.90;1.00;;;;;;5018291;28;20191;-66
2023/03/21 04:39:00;;;;;;;20.93;10.10;;;9.70;1.00;;;;;;5022366;28;20224;-65
2023/03/21 04:41:29;;;;;;;19.80;9.67;;;9.60;1.00;;;;;;5035911;28;20196;-66
2023/03/21 04:43:56;;;;;;;16.80;9.53;;;9.50;1.00;;;;;;5022302;28;20213;-65
2023/03/21 04:46:23;;;;;;;23.63;10.50;;;9.50;1.00;;;;;;5021128;28;20320;-66
2023/03/21 04:48:50;;;;;;;18.10;9.60;;;9.40;1.00;;;;;;5036089;28;20698;-65
2023/03/21 04:51:17;;;;;;;20.93;10.40;;;9.40;1.00;;;;;;5019362;28;20290;-65
2023/03/21 04:53:45;;;;;;;17.63;10.57;;;9.50;1.00;;;;;;5022690;28;20202;-66
2023/03/21 04:56:13;;;;;;;19.13;10.40;;;9.60;1.00;;;;;;5039319;28;20200;-64
2023/03/21 04:58:41;;;;;;;19.10;10.43;;;9.60;1.00;;;;;;5022838;28;20299;-66
2023/03/21 05:01:08;;;;;;;21.33;11.27;;;9.50;1.00;;;;;;5038987;28;20737;-67
2023/03/21 05:03:38;;;;;;;19.83;10.70;;;9.60;1.00;;;;;;5021329;28;20228;-66
2023/03/21 05:06:09;;;;;;;18.47;10.60;;;9.60;1.00;;;;;;5021705;28;20203;-67
2023/03/21 05:08:36;;;;;;;17.90;10.60;;;9.60;1.00;;;;;;5038176;28;20199;-66
2023/03/21 05:11:04;;;;;;;21.73;10.70;;;9.60;1.00;;;;;;5035145;28;20286;-64
2023/03/21 05:13:31;;;;;;;21.53;11.23;;;9.60;1.00;;;;;;5012500;28;20239;-67
2023/03/21 05:15:58;;;;;;;18.67;10.50;;;9.50;1.00;;;;;;5021840;28;20192;-66
2023/03/21 05:18:25;;;;;;;18.30;10.70;;;9.60;1.00;;;;;;5022522;28;20690;-65
2023/03/21 05:21:03;;;;;;;22.50;11.23;;;9.50;1.00;;;;;;5016224;28;20220;-65
2023/03/21 05:23:37;;;;;;;18.90;11.47;;;9.60;1.00;;;;;;5037233;28;20678;-64
2023/03/21 05:26:08;;;;;;;26.70;11.43;;;9.60;1.00;;;;;;5037822;28;20212;-65
2023/03/21 05:28:46;;;;;;;25.00;11.83;;;9.60;1.00;;;;;;5012046;28;20224;-65
2023/03/21 05:31:17;;;;;;;21.80;11.73;;;9.60;1.00;;;;;;5026820;28;20219;-66
2023/03/21 05:33:47;;;;;;;19.80;11.90;;;9.60;1.00;;;;;;5028584;28;22185;-66
2023/03/21 05:36:17;;;;;;;24.00;11.90;;;9.50;1.00;;;;;;5020293;28;20295;-65
2023/03/21 05:38:47;;;;;;;25.47;12.60;;;9.50;1.00;;;;;;5037521;28;20195;-66
2023/03/21 05:41:16;;;;;;;18.87;11.70;;;9.50;1.00;;;;;;5019668;28;20212;-66
2023/03/21 05:43:45;;;;;;;24.40;12.40;;;9.60;1.00;;;;;;5022659;28;20188;-66
2023/03/21 05:46:14;;;;;;;19.03;11.43;;;9.60;1.00;;;;;;5018026;28;20698;-65
2023/03/21 05:48:42;;;;;;;20.77;11.70;;;9.60;1.00;;;;;;5021684;28;20283;-65
2023/03/21 05:51:14;;;;;;;22.47;12.37;;;9.70;1.00;;;;;;5019592;28;20208;-65
2023/03/21 05:53:41;;;;;;;17.63;11.50;;;9.70;1.00;;;;;;5019691;28;20642;-64
2023/03/21 05:56:09;;;;;;;24.83;11.73;;;9.70;1.00;;;;;;5012599;28;20566;-68
2023/03/21 05:59:03;;;;;;;22.67;12.03;;;9.70;1.00;;;;;;5029544;28;20234;-66
2023/03/21 06:01:34;;;;;;;19.10;11.27;;;9.80;1.00;;;;;;5035320;28;20204;-64
2023/03/21 06:04:10;;;;;;;20.43;11.60;;;9.80;1.00;;;;;;5035598;28;20255;-65
2023/03/21 06:06:39;;;;;;;18.13;11.37;;;9.80;1.00;;;;;;5052399;28;20262;-65
2023/03/21 06:09:07;;;;;;;18.20;10.67;;;9.80;1.00;;;;;;5011107;28;20196;-66
2023/03/21 06:11:37;;;;;;;19.70;11.83;;;9.90;1.00;;;;;;5020156;28;20258;-66
2023/03/21 06:14:19;;;;;;;25.43;11.40;;;9.90;1.00;;;;;;5018512;28;20196;-66
2023/03/21 06:17:04;;;;;;;18.27;10.23;;;9.90;1.00;;;;;;5011927;28;20692;-67
2023/03/21 06:19:34;;;;;;;20.27;10.90;;;10.00;1.00;;;;;;5030273;28;20687;-64
2023/03/21 06:22:06;;;;;;;18.70;10.03;;;10.10;1.00;;;;;;5043896;28;20193;-66
2023/03/21 06:24:37;;;;;;;18.83;11.63;;;10.20;1.00;;;;;;5019258;28;20283;-66
2023/03/21 06:27:04;;;;;;;17.97;10.17;;;10.40;1.00;;;;;;5019419;28;20290;-67
2023/03/21 06:29:45;;;;;;;17.93;10.80;;;10.40;1.00;;;;;;5017875;28;20207;-66
2023/03/21 06:32:12;;;;;;;20.20;11.30;;;10.40;1.00;;;;;;5018306;28;20204;-65
2023/03/21 06:34:39;;;;;;;29.50;18.37;;;10.40;1.00;;;;;;5019260;28;20202;-67
2023/03/21 06:37:08;;;;;;;24.27;13.07;;;10.40;1.00;;;;;;5036348;28;20253;-69
2023/03/21 06:39:36;;;;;;;20.70;10.53;;;10.40;1.00;;;;;;5020844;28;20219;-64
2023/03/21 06:42:03;;;;;;;17.50;10.00;;;10.40;1.00;;;;;;5010965;28;20196;-64
2023/03/21 06:44:30;;;;;;;17.47;9.87;;;10.30;1.00;;;;;;5020104;28;20308;-63
2023/03/21 06:47:02;;;;;;;17.97;10.20;;;10.30;1.00;;;;;;5018672;28;20204;-63
2023/03/21 06:49:29;;;;;;;18.67;10.53;;;10.30;1.00;;;;;;5010351;28;20204;-63
2023/03/21 06:52:00;;;;;;;16.57;9.63;;;10.30;1.00;;;;;;5010958;28;20562;-62
2023/03/21 06:54:27;;;;;;;18.93;9.67;;;10.20;1.00;;;;;;5011082;28;20218;-62
2023/03/21 06:56:58;;;;;;;15.83;9.80;;;10.20;1.00;;;;;;5014075;28;20686;-63
2023/03/21 06:59:28;;;;;;;22.30;9.93;;;10.20;1.00;;;;;;5022883;28;20220;-64
2023/03/21 07:02:05;;;;;;;26.43;10.80;;;10.20;1.00;;;;;;5022897;28;20738;-63
2023/03/21 07:04:38;;;;;;;20.20;10.77;;;10.20;1.00;;;;;;5039402;28;20768;-63
2023/03/21 07:07:10;;;;;;;18.67;10.03;;;10.30;1.00;;;;;;5024115;28;20192;-63
2023/03/21 07:09:37;;;;;;;23.17;10.67;;;10.30;1.00;;;;;;5025926;28;20726;-63
2023/03/21 07:12:05;;;;;;;21.20;10.17;;;10.40;1.00;;;;;;5031512;28;20196;-65
2023/03/21 07:15:03;;;;;;;21.53;10.80;;;10.50;1.00;;;;;;5032985;28;20278;-63
2023/03/21 07:17:31;;;;;;;19.23;9.17;;;10.50;1.00;;;;;;5018544;28;20195;-63
2023/03/21 07:19:58;;;;;;;23.67;10.33;;;10.40;1.00;;;;;;5029623;28;20898;-62
2023/03/21 07:22:25;;;;;;;17.83;10.63;;;10.40;1.00;;;;;;5020147;28;20192;-63
2023/03/21 07:24:52;;;;;;;17.00;9.37;;;10.30;1.00;;;;;;5024160;28;20214;-64
2023/03/21 07:27:36;;;;;;;24.53;11.07;;;10.20;1.00;;;;;;5031621;28;20200;-63
2023/03/21 07:30:07;;;;;;;18.97;10.70;;;10.00;3.60;;;;;;5039459;28;20290;-63
2023/03/21 07:32:36;;;;;;;23.20;10.07;;;10.00;81.00;;;;;;5036614;28;20211;-63
2023/03/21 07:35:06;;;;;;;26.40;14.10;;;9.90;55.40;;;;;;5021466;28;20196;-64
2023/03/21 07:37:33;;;;;;;19.83;11.07;;;10.00;75.40;;;;;;5008519;28;20218;-64
2023/03/21 07:40:09;;;;;;;17.60;10.00;;;10.00;98.10;;;;;;5023877;28;20236;-65
2023/03/21 07:42:39;;;;;;;23.73;12.80;;;10.00;76.00;;;;;;5021739;28;20195;-64
2023/03/21 07:45:08;;;;;;;18.97;10.23;;;10.00;99.90;;;;;;5018874;28;20200;-64
2023/03/21 07:47:35;;;;;;;19.27;10.70;;;10.00;97.60;;;;;;5018553;28;20204;-63
2023/03/21 07:50:03;;;;;;;21.60;11.50;;;9.90;99.90;;;;;;5020258;28;20220;-64
2023/03/21 07:52:30;;;;;;;24.47;11.83;;;9.90;99.90;;;;;;5013330;28;20899;-64
2023/03/21 07:54:58;;;;;;;21.77;11.50;;;9.90;99.90;;;;;;5020778;28;20288;-64
2023/03/21 07:57:24;;;;;;;22.33;11.67;;;10.00;99.90;;;;;;5022435;28;20294;-65
2023/03/21 07:59:52;;;;;;;26.80;11.53;;;10.00;99.90;;;;;;5022405;28;20291;-64
2023/03/21 08:02:19;;;;;;;23.17;12.03;;;9.90;99.90;;;;;;5037455;28;20207;-68
2023/03/21 08:04:46;;;;;;;21.00;12.13;;;9.90;99.90;;;;;;5034058;28;20282;-63
2023/03/21 08:07:13;;;;;;;19.17;12.10;;;9.90;99.90;;;;;;5014477;28;20204;-64
2023/03/21 08:09:42;;;;;;;24.43;11.97;;;10.00;99.90;;;;;;5018817;28;20587;-64
2023/03/21 08:12:10;;;;;;;22.07;12.27;;;9.90;99.90;;;;;;5016019;28;20223;-64
2023/03/21 08:14:37;;;;;;;22.27;12.07;;;10.00;99.90;;;;;;5015976;28;20200;-65
2023/03/21 08:17:05;;;;;;;23.10;12.47;;;10.10;99.90;;;;;;5016074;28;20192;-64
2023/03/21 08:19:32;;;;;;;25.53;11.57;;;10.10;99.90;;;;;;5017112;28;20201;-64
2023/03/21 08:22:00;;;;;;;22.37;12.63;;;10.10;99.90;;;;;;5015330;28;20710;-66
2023/03/21 08:24:27;;;;;;;27.53;12.10;;;10.10;99.90;;;;;;5015169;28;20251;-64
2023/03/21 08:26:54;;;;;;;21.57;11.93;;;10.10;99.90;;;;;;5015120;28;20201;-64
2023/03/21 08:29:23;;;;;;;23.80;12.03;;;10.10;99.90;;;;;;5001922;28;20201;-64
2023/03/21 08:31:50;;;;;;;22.47;11.63;;;10.20;99.90;;;;;;5025561;28;20690;-65
2023/03/21 08:34:18;;;;;;;24.60;11.93;;;10.30;99.90;;;;;;5018230;28;20706;-64
2023/03/21 08:36:45;;;;;;;22.17;11.53;;;10.10;99.90;;;;;;5017824;28;20580;-64
2023/03/21 08:39:13;;;;;;;24.80;11.97;;;10.20;99.90;;;;;;5014705;28;20255;-64
2023/03/21 08:41:40;;;;;;;23.17;11.90;;;10.10;1.00;;;;;;5014253;28;20216;-64
2023/03/21 08:44:07;;;;;;;21.50;12.47;;;10.20;1.00;;;;;;5019109;28;20198;-63
2023/03/21 08:46:35;;;;;;;21.63;11.17;;;10.20;1.00;;;;;;5029281;28;20208;-63
2023/03/21 08:49:02;;;;;;;22.53;11.67;;;10.20;1.00;;;;;;5015432;28;20201;-66
2023/03/21 08:51:30;;;;;;;22.97;11.47;;;10.30;1.00;;;;;;5012560;28;20270;-65
2023/03/21 08:53:57;;;;;;;23.17;11.87;;;10.40;1.00;;;;;;5019062;28;20609;-64
2023/03/21 08:56:24;;;;;;;20.40;11.20;;;10.30;1.00;;;;;;5013927;28;20231;-63
2023/03/21 08:58:51;;;;;;;21.20;10.70;;;10.30;1.00;;;;;;5017601;28;20258;-67
2023/03/21 09:01:18;;;;;;;25.13;11.43;;;10.30;1.00;;;;;;5016333;28;20232;-64
2023/03/21 09:03:45;;;;;;;24.20;10.70;;;10.30;1.00;;;;;;5034135;28;20229;-64
2023/03/21 09:06:13;;;;;;;22.47;10.73;;;10.40;1.00;;;;;;5021031;28;21333;-64
2023/03/21 09:08:45;;;;;;;17.17;9.60;;;10.40;99.90;;;;;;5037671;28;20668;-64
2023/03/21 09:11:12;;;;;;;19.90;10.40;;;10.50;99.90;;;;;;5023632;28;20211;-64
2023/03/21 09:13:39;;;;;;;18.07;9.63;;;10.30;99.90;;;;;;5010964;28;20286;-64
2023/03/21 09:16:07;;;;;;;16.50;9.30;;;10.30;99.90;;;;;;5019912;28;20294;-64
2023/03/21 09:18:45;;;;;;;24.03;11.40;;;10.30;99.90;;;;;;5017551;28;21665;-64
2023/03/21 09:21:14;;;;;;;20.17;10.27;;;10.40;99.90;;;;;;5017290;28;20226;-63
2023/03/21 09:23:43;;;;;;;20.07;9.83;;;10.50;99.90;;;;;;5035294;28;20664;-64
2023/03/21 09:26:12;;;;;;;14.83;9.07;;;10.60;99.90;;;;;;5033156;28;20592;-64
2023/03/21 09:28:39;;;;;;;22.43;9.20;;;10.50;99.90;;;;;;5037489;28;20219;-63
2023/03/21 09:31:11;;;;;;;20.33;9.33;;;10.70;99.90;;;;;;5021182;28;20295;-64
2023/03/21 09:33:42;;;;;;;17.83;9.13;;;10.80;99.90;;;;;;5034485;28;20282;-63
2023/03/21 09:36:12;;;;;;;22.30;9.67;;;10.80;99.90;;;;;;5032887;28;20202;-64
2023/03/21 09:38:41;;;;;;;16.37;9.47;;;10.70;99.90;;;;;;5035386;28;20227;-64
2023/03/21 09:41:29;;;;;;;17.73;8.70;;;10.90;99.90;;;;;;5015027;28;20872;-68
2023/03/21 09:44:29;;;;;;;18.40;8.20;;;11.30;99.90;;;;;;5034381;28;20195;-70
2023/03/21 09:47:23;;;;;;;11.80;7.83;;;11.20;99.90;;;;;;5009893;28;20838;-63
2023/03/21 09:50:15;;;;;;;17.37;7.73;;;11.30;99.90;;;;;;5011331;28;20719;-64
2023/03/21 09:52:52;;;;;;;13.53;8.90;;;11.50;99.90;;;;;;5034054;28;20546;-62
2023/03/21 09:55:29;;;;;;;20.47;8.17;;;11.50;99.90;;;;;;5020244;28;20192;-62
2023/03/21 09:58:15;;;;;;;15.40;8.13;;;11.40;99.90;;;;;;5016811;28;20245;-63
2023/03/21 10:00:48;;;;;;;19.27;8.93;;;11.30;99.90;;;;;;5019833;28;20230;-65
2023/03/21 10:03:25;;;;;;;14.03;8.50;;;11.40;99.90;;;;;;5004519;28;20212;-63
2023/03/21 10:05:57;;;;;;;17.23;8.10;;;11.30;99.90;;;;;;5016833;28;20856;-63
2023/03/21 10:08:30;;;;;;;16.13;8.80;;;11.20;99.90;;;;;;5020620;28;20202;-63
2023/03/21 10:11:04;;;;;;;16.47;7.37;;;11.30;99.90;;;;;;5020552;28;20203;-63
2023/03/21 10:13:49;;;;;;;16.07;9.00;;;11.20;99.90;;;;;;5014428;28;20601;-64
2023/03/21 10:16:31;;;;;;;14.20;7.50;;;11.20;99.90;;;;;;5009571;28;20200;-62
2023/03/21 10:19:08;;;;;;;11.63;8.70;;;11.20;99.90;;;;;;5011243;28;20298;-63
2023/03/21 10:21:42;;;;;;;14.93;9.20;;;11.20;99.90;;;;;;5017915;28;20991;-63
2023/03/21 10:24:28;;;;;;;15.80;8.73;;;11.30;99.90;;;;;;5014927;28;20202;-63
2023/03/21 10:26:56;;;;;;;14.67;8.77;;;11.30;99.90;;;;;;5031757;28;20218;-63
2023/03/21 10:29:27;;;;;;;12.50;8.70;;;11.20;99.90;;;;;;5004097;28;20703;-63
2023/03/21 10:31:55;;;;;;;18.73;9.37;;;11.20;99.90;;;;;;5026228;28;20665;-63
2023/03/21 10:34:55;;;;;;;15.20;8.87;;;11.10;99.90;;;;;;5009883;28;20196;-63
2023/03/21 10:37:27;;;;;;;17.60;8.50;;;11.20;99.90;;;;;;5001416;28;20204;-64
2023/03/21 10:39:55;;;;;;;16.13;8.67;;;11.20;99.90;;;;;;5044856;28;20287;-63
2023/03/21 10:42:25;;;;;;;18.50;8.33;;;11.20;99.90;;;;;;5012598;28;20204;-63
2023/03/21 10:44:56;;;;;;;14.23;8.97;;;11.20;99.90;;;;;;5013968;28;20208;-64
2023/03/21 10:47:30;;;;;;;16.13;8.60;;;11.00;99.90;;;;;;5007233;28;20200;-64
2023/03/21 10:50:25;;;;;;;16.33;9.83;;;11.10;99.90;;;;;;5013171;28;20212;-63
2023/03/21 10:52:59;;;;;;;15.13;8.40;;;11.10;99.90;;;;;;5025684;28;20223;-63
2023/03/21 10:55:32;;;;;;;14.93;9.10;;;11.10;1.00;;;;;;5020042;28;20241;-63
2023/03/21 10:58:09;;;;;;;11.63;8.27;;;11.00;1.00;;;;;;5026763;28;20241;-63
2023/03/21 11:00:40;;;;;;;18.43;9.57;;;11.10;1.00;;;;;;5043279;28;20215;-64
2023/03/21 11:03:23;;;;;;;12.73;8.97;;;11.00;99.90;;;;;;5025750;28;20741;-64
2023/03/21 11:05:58;;;;;;;14.70;8.73;;;11.20;1.00;;;;;;5025697;28;20252;-63
2023/03/21 11:08:26;;;;;;;18.30;7.80;;;11.30;99.90;;;;;;5010802;28;20196;-63
2023/03/21 11:10:59;;;;;;;14.00;7.80;;;11.20;99.90;;;;;;5008290;28;20258;-64
2023/03/21 11:13:36;;;;;;;17.63;7.60;;;11.30;99.90;;;;;;5011933;28;20204;-64
2023/03/21 11:16:07;;;;;;;12.33;6.83;;;11.20;99.90;;;;;;5043554;28;20233;-63
2023/03/21 11:18:41;;;;;;;16.73;7.03;;;11.20;99.90;;;;;;5001971;28;20236;-63
2023/03/21 11:21:12;;;;;;;14.80;6.33;;;11.20;99.90;;;;;;4996010;28;20220;-63
2023/03/21 11:23:44;;;;;;;11.87;6.50;;;11.10;99.90;;;;;;5030177;28;20254;-62
2023/03/21 11:26:22;;;;;;;13.20;6.40;;;11.10;99.90;;;;;;5011895;28;20692;-62
2023/03/21 11:28:53;;;;;;;11.03;6.27;;;11.20;99.90;;;;;;5001328;28;20595;-63
2023/03/21 11:31:23;;;;;;;12.70;6.17;;;11.20;99.90;;;;;;5025503;28;20204;-63
2023/03/21 11:33:55;;;;;;;9.67;5.40;;;11.30;99.90;;;;;;5026682;28;20264;-62
2023/03/21 11:36:22;;;;;;;9.63;5.63;;;11.30;99.90;;;;;;5026357;28;20199;-63
2023/03/21 11:38:58;;;;;;;13.80;5.20;;;11.50;99.90;;;;;;5027951;28;20569;-63
2023/03/21 11:41:32;;;;;;;8.33;4.97;;;11.50;99.90;;;;;;5025348;28;20906;-63
2023/03/21 11:44:01;;;;;;;6.33;4.60;;;11.70;99.90;;;;;;5027378;28;20228;-62
2023/03/21 11:46:31;;;;;;;9.67;4.77;;;11.50;99.90;;;;;;5028103;28;20202;-67
2023/03/21 11:49:00;;;;;;;11.03;5.13;;;11.60;99.90;;;;;;5021720;28;20776;-63
2023/03/21 11:51:47;;;;;;;6.23;5.00;;;11.60;99.90;;;;;;5030212;28;20231;-64
2023/03/21 11:54:18;;;;;;;9.07;4.50;;;11.50;99.90;;;;;;5001217;28;20210;-64
2023/03/21 11:56:52;;;;;;;11.63;4.90;;;11.30;99.90;;;;;;5023148;28;20250;-63
2023/03/21 11:59:31;;;;;;;10.60;5.13;;;11.30;1.00;;;;;;5030190;28;20214;-63
2023/03/21 12:02:29;;;;;;;12.07;5.53;;;11.20;99.90;;;;;;5030853;28;20207;-64
2023/03/21 12:05:06;;;;;;;12.90;5.33;;;11.30;99.90;;;;;;5012742;28;20763;-66
2023/03/21 12:07:40;;;;;;;9.10;5.63;;;11.20;99.90;;;;;;5029723;28;20236;-63
2023/03/21 12:10:32;;;;;;;13.17;5.63;;;11.30;1.00;;;;;;5031961;28;20207;-64
2023/03/21 12:13:20;;;;;;;17.60;10.33;;;11.40;99.90;;;;;;4996040;28;20270;-64
2023/03/21 12:15:56;;;;;;;12.13;6.13;;;11.40;99.90;;;;;;5022363;28;20200;-64
2023/03/21 12:18:48;;;;;;;11.60;7.07;;;11.50;99.90;;;;;;5017215;28;20203;-63
2023/03/21 12:21:33;;;;;;;10.00;5.70;;;11.60;99.90;;;;;;5027949;28;20632;-64
2023/03/21 12:24:06;;;;;;;11.20;6.30;;;11.60;99.90;;;;;;5032171;28;20284;-64
2023/03/21 12:27:28;;;;;;;7.97;4.80;;;12.00;99.90;;;;;;5031753;28;20213;-64
2023/03/21 12:29:58;;;;;;;13.10;5.03;;;12.00;99.90;;;;;;4975847;28;20246;-64
2023/03/21 12:32:28;;;;;;;9.07;5.60;;;12.10;94.80;;;;;;5023094;28;20209;-64
2023/03/21 12:35:18;;;;;;;9.33;5.07;;;12.20;99.90;;;;;;5031354;28;20303;-64
2023/03/21 12:38:06;;;;;;;17.30;8.63;;;12.20;99.90;;;;;;5028872;28;20192;-64
2023/03/21 12:40:58;;;;;;;16.90;15.13;;;12.20;94.30;;;;;;5029970;28;20253;-64
2023/03/21 12:43:46;;;;;;;16.23;14.63;;;12.10;96.90;;;;;;5027319;28;20196;-66
2023/03/21 12:46:39;;;;;;;9.23;5.50;;;12.10;96.30;;;;;;5032709;28;20224;-66
2023/03/21 12:49:08;;;;;;;11.30;6.87;;;12.20;64.50;;;;;;5011464;28;20320;-65
2023/03/21 12:51:41;;;;;;;9.73;5.73;;;12.40;35.40;;;;;;5010115;28;20270;-68
2023/03/21 12:54:22;;;;;;;9.67;5.87;;;12.40;29.20;;;;;;5010997;28;20184;-65
2023/03/21 12:56:57;;;;;;;21.57;15.60;;;12.50;5.60;;;;;;5021764;28;20200;-67
2023/03/21 12:59:38;;;;;;;20.17;18.03;;;12.50;1.00;;;;;;5026332;28;20650;-66
2023/03/21 13:02:25;;;;;;;10.53;5.60;;;12.80;1.00;;;;;;5028924;28;20222;-67
2023/03/21 13:05:03;;;;;;;9.77;8.77;;;13.00;1.00;;;;;;5021928;28;20289;-65
2023/03/21 13:07:34;;;;;;;8.27;3.90;;;12.70;1.00;;;;;;5026875;28;20192;-67
2023/03/21 13:10:12;;;;;;;8.47;3.63;;;12.70;1.00;;;;;;5029431;28;20631;-67
2023/03/21 13:13:08;;;;;;;8.30;4.07;;;12.80;1.00;;;;;;5027986;28;20196;-65
2023/03/21 13:15:49;;;;;;;6.57;3.27;;;12.90;1.00;;;;;;5014753;28;20204;-66
2023/03/21 13:18:45;;;;;;;6.13;3.30;;;12.80;1.00;;;;;;5010451;28;20315;-66
2023/03/21 13:21:12;;;;;;;7.17;3.80;;;12.80;1.00;;;;;;5027913;28;20286;-67